createdAt,value
2022-09-22T00:01:38.240Z,96700.09
2022-09-22T00:04:08.489Z,96701.50
2022-09-22T00:06:42.280Z,96698.25
2022-09-22T00:09:11.684Z,96703.53
2022-09-22T00:11:43.247Z,96706.00
2022-09-22T00:14:14.013Z,96696.81
2022-09-22T00:16:43.384Z,96699.09
2022-09-22T00:19:13.562Z,96697.47
2022-09-22T00:21:43.635Z,96697.88
2022-09-22T00:24:16.218Z,96695.44
2022-09-22T00:26:45.024Z,96693.59
2022-09-22T00:29:13.555Z,96698.31
2022-09-22T00:31:42.855Z,96688.53
2022-09-22T00:34:15.259Z,96684.66
2022-09-22T00:36:45.111Z,96686.69
2022-09-22T00:39:13.560Z,96685.06
2022-09-22T00:41:44.939Z,96686.09
2022-09-22T00:44:35.371Z,96692.41
2022-09-22T00:47:07.799Z,96686.53
2022-09-22T00:49:39.425Z,96686.72
2022-09-22T00:52:09.450Z,96687.75
2022-09-22T00:54:39.282Z,96686.72
2022-09-22T00:57:09.883Z,96688.56
2022-09-22T00:59:39.200Z,96689.38
2022-09-22T01:02:09.230Z,96682.03
2022-09-22T01:04:38.561Z,96689.75
2022-09-22T01:07:09.042Z,96679.75
2022-09-22T01:09:37.622Z,96678.34
2022-09-22T01:12:06.384Z,96670.19
2022-09-22T01:14:42.875Z,96676.69
2022-09-22T01:17:14.658Z,96677.69
2022-09-22T01:19:59.532Z,96675.03
2022-09-22T01:22:58.401Z,96670.97
2022-09-22T01:25:58.070Z,96671.38
2022-09-22T01:28:40.372Z,96670.31
2022-09-22T01:31:16.004Z,96662.56
2022-09-22T01:33:45.864Z,96669.66
2022-09-22T01:36:22.492Z,96661.31
2022-09-22T01:38:59.908Z,96667.22
2022-09-22T01:41:41.377Z,96666.41
2022-09-22T01:44:11.006Z,96673.31
2022-09-22T01:46:42.688Z,96669.06
2022-09-22T01:49:12.672Z,96664.78
2022-09-22T01:51:47.195Z,96667.41
2022-09-22T01:54:21.361Z,96663.34
2022-09-22T01:56:54.196Z,96648.47
2022-09-22T01:59:22.930Z,96651.72
2022-09-22T02:01:59.055Z,96652.13
2022-09-22T02:04:30.571Z,96651.75
2022-09-22T02:06:59.989Z,96650.75
2022-09-22T02:09:30.866Z,96653.41
2022-09-22T02:11:59.522Z,96651.97
2022-09-22T02:14:28.170Z,96643.81
2022-09-22T02:17:01.353Z,96643.00
2022-09-22T02:19:30.602Z,96644.03
2022-09-22T02:21:59.424Z,96642.59
2022-09-22T02:24:29.768Z,96642.81
2022-09-22T02:26:59.063Z,96642.22
2022-09-22T02:29:28.376Z,96641.63
2022-09-22T02:31:58.918Z,96632.25
2022-09-22T02:34:28.674Z,96634.50
2022-09-22T02:36:59.390Z,96638.19
2022-09-22T02:39:30.377Z,96637.38
2022-09-22T02:42:05.833Z,96640.03
2022-09-22T02:44:36.958Z,96635.94
2022-09-22T02:47:10.087Z,96635.34
2022-09-22T02:49:38.779Z,96625.16
2022-09-22T02:52:10.630Z,96629.63
2022-09-22T02:54:42.550Z,96623.75
2022-09-22T02:57:11.011Z,96628.03
2022-09-22T02:59:40.374Z,96630.31
2022-09-22T03:02:10.331Z,96627.25
2022-09-22T03:04:38.920Z,96625.22
2022-09-22T03:07:07.391Z,96623.84
2022-09-22T03:09:35.708Z,96627.09
2022-09-22T03:12:04.297Z,96627.28
2022-09-22T03:14:32.687Z,96618.16
2022-09-22T03:17:01.737Z,96631.81
2022-09-22T03:19:31.646Z,96626.72
2022-09-22T03:21:59.947Z,96626.09
2022-09-22T03:24:28.098Z,96621.25
2022-09-22T03:26:56.355Z,96620.22
2022-09-22T03:29:24.733Z,96617.34
2022-09-22T03:31:53.520Z,96623.06
2022-09-22T03:34:21.985Z,96624.09
2022-09-22T03:36:51.825Z,96620.81
2022-09-22T03:39:20.231Z,96621.03
2022-09-22T03:41:51.269Z,96621.22
2022-09-22T03:44:20.123Z,96618.59
2022-09-22T03:46:48.863Z,96621.66
2022-09-22T03:49:17.220Z,96619.44
2022-09-22T03:51:45.605Z,96617.78
2022-09-22T03:54:15.757Z,96622.47
2022-09-22T03:56:44.765Z,96617.78
2022-09-22T03:59:13.142Z,96624.50
2022-09-22T04:01:41.600Z,96617.38
2022-09-22T04:04:09.953Z,96616.56
2022-09-22T04:06:38.911Z,96622.88
2022-09-22T04:09:07.622Z,96616.78
2022-09-22T04:11:38.078Z,96621.47
2022-09-22T04:14:06.546Z,96614.53
2022-09-22T04:16:35.622Z,96613.31
2022-09-22T04:19:05.317Z,96611.47
2022-09-22T04:21:36.350Z,96613.94
2022-09-22T04:24:10.577Z,96612.31
2022-09-22T04:26:56.396Z,96611.47
2022-09-22T04:29:30.069Z,96606.81
2022-09-22T04:31:59.229Z,96605.19
2022-09-22T04:34:28.152Z,96607.41
2022-09-22T04:36:56.975Z,96609.69
2022-09-22T04:39:29.303Z,96607.84
2022-09-22T04:42:03.094Z,96605.00
2022-09-22T04:44:35.236Z,96606.88
2022-09-22T04:47:07.125Z,96610.72
2022-09-22T04:49:37.381Z,96616.00
2022-09-22T04:52:06.808Z,96618.66
2022-09-22T04:54:35.721Z,96613.56
2022-09-22T04:57:05.956Z,96618.25
2022-09-22T04:59:35.425Z,96619.25
2022-09-22T05:02:03.764Z,96623.97
2022-09-22T05:04:32.273Z,96620.28
2022-09-22T05:07:02.147Z,96626.38
2022-09-22T05:09:30.753Z,96618.44
2022-09-22T05:12:03.875Z,96613.16
2022-09-22T05:14:34.683Z,96620.88
2022-09-22T05:17:03.955Z,96626.19
2022-09-22T05:19:33.680Z,96623.16
2022-09-22T05:22:02.067Z,96631.50
2022-09-22T05:24:32.458Z,96619.06
2022-09-22T05:27:01.061Z,96624.16
2022-09-22T05:29:29.928Z,96622.91
2022-09-22T05:32:00.533Z,96622.72
2022-09-22T05:34:30.148Z,96628.22
2022-09-22T05:37:00.728Z,96621.69
2022-09-22T05:39:31.072Z,96635.53
2022-09-22T05:42:07.609Z,96629.84
2022-09-22T05:44:41.236Z,96632.44
2022-09-22T05:47:11.790Z,96636.91
2022-09-22T05:49:40.390Z,96631.97
2022-09-22T05:52:09.542Z,96636.22
2022-09-22T05:54:38.053Z,96627.06
2022-09-22T05:57:08.005Z,96630.28
2022-09-22T05:59:37.398Z,96630.84
2022-09-22T06:02:23.724Z,96636.31
2022-09-22T06:04:56.448Z,96630.72
2022-09-22T06:07:26.637Z,96628.44
2022-09-22T06:09:55.192Z,96634.50
2022-09-22T06:12:23.763Z,96634.09
2022-09-22T06:14:52.627Z,96633.88
2022-09-22T06:17:28.673Z,96630.63
2022-09-22T06:20:00.904Z,96631.00
2022-09-22T06:22:29.755Z,96635.91
2022-09-22T06:24:58.473Z,96636.69
2022-09-22T06:27:29.137Z,96633.19
2022-09-22T06:29:58.962Z,96633.56
2022-09-22T06:32:27.730Z,96632.06
2022-09-22T06:34:59.887Z,96631.59
2022-09-22T06:37:31.370Z,96633.13
2022-09-22T06:39:59.891Z,96621.81
2022-09-22T06:42:28.683Z,96622.66
2022-09-22T06:44:57.739Z,96624.31
2022-09-22T06:47:26.557Z,96627.25
2022-09-22T06:49:55.170Z,96625.03
2022-09-22T06:52:25.410Z,96613.59
2022-09-22T06:55:03.818Z,96616.44
2022-09-22T06:57:34.135Z,96619.19
2022-09-22T07:00:03.767Z,96622.28
2022-09-22T07:02:32.892Z,96615.84
2022-09-22T07:05:03.947Z,96619.72
2022-09-22T07:07:34.875Z,96614.78
2022-09-22T07:10:03.329Z,96605.75
2022-09-22T07:12:31.643Z,96612.81
2022-09-22T07:15:01.999Z,96610.81
2022-09-22T07:17:32.750Z,96621.84
2022-09-22T07:20:01.365Z,96619.63
2022-09-22T07:22:30.090Z,96632.25
2022-09-22T07:25:02.466Z,96628.16
2022-09-22T07:27:31.412Z,96628.72
2022-09-22T07:30:03.868Z,96628.34
2022-09-22T07:32:35.342Z,96626.19
2022-09-22T07:35:05.302Z,96626.72
2022-09-22T07:37:36.045Z,96626.91
2022-09-22T07:40:08.701Z,96630.34
2022-09-22T07:42:37.374Z,96628.88
2022-09-22T07:45:15.290Z,96623.16
2022-09-22T07:48:02.816Z,96614.16
2022-09-22T07:50:33.638Z,96625.56
2022-09-22T07:53:05.228Z,96625.81
2022-09-22T07:55:35.977Z,96625.00
2022-09-22T07:58:19.974Z,96627.31
2022-09-22T08:00:48.697Z,96619.38
2022-09-22T08:03:17.337Z,96624.25
2022-09-22T08:05:47.263Z,96626.16
2022-09-22T08:08:16.722Z,96621.84
2022-09-22T08:10:47.647Z,96629.16
2022-09-22T08:13:17.261Z,96618.78
2022-09-22T08:15:45.575Z,96627.72
2022-09-22T08:18:14.449Z,96619.00
2022-09-22T08:20:45.080Z,96624.19
2022-09-22T08:23:14.500Z,96625.84
2022-09-22T08:25:43.025Z,96621.94
2022-09-22T08:28:13.543Z,96627.16
2022-09-22T08:30:53.084Z,96631.56
2022-09-22T08:33:23.374Z,96631.97
2022-09-22T08:35:53.978Z,96625.09
2022-09-22T08:38:24.675Z,96627.13
2022-09-22T08:41:05.590Z,96629.31
2022-09-22T08:43:42.025Z,96635.38
2022-09-22T08:46:13.403Z,96630.72
2022-09-22T08:49:01.590Z,96622.63
2022-09-22T08:51:51.500Z,96632.53
2022-09-22T08:54:19.781Z,96628.69
2022-09-22T08:56:57.610Z,96629.09
2022-09-22T08:59:30.690Z,96624.22
2022-09-22T09:02:09.442Z,96622.53
2022-09-22T09:05:02.946Z,96629.00
2022-09-22T09:07:35.427Z,96624.91
2022-09-22T09:10:08.236Z,96626.34
2022-09-22T09:12:44.612Z,96634.13
2022-09-22T09:15:30.343Z,96633.19
2022-09-22T09:18:01.290Z,96625.53
2022-09-22T09:20:35.006Z,96627.16
2022-09-22T09:23:03.419Z,96620.72
2022-09-22T09:25:35.948Z,96630.66
2022-09-22T09:28:06.550Z,96623.63
2022-09-22T09:30:41.545Z,96625.53
2022-09-22T09:33:15.896Z,96634.91
2022-09-22T09:35:52.069Z,96635.06
2022-09-22T09:38:23.227Z,96634.63
2022-09-22T09:40:54.467Z,96625.34
2022-09-22T09:43:23.555Z,96630.81
2022-09-22T09:45:57.242Z,96627.28
2022-09-22T09:48:30.851Z,96621.94
2022-09-22T09:51:04.373Z,96617.53
2022-09-22T09:53:41.181Z,96625.47
2022-09-22T09:56:17.887Z,96624.69
2022-09-22T09:59:13.812Z,96628.47
2022-09-22T10:01:44.772Z,96632.44
2022-09-22T10:04:21.181Z,96631.69
2022-09-22T10:06:50.317Z,96622.13
2022-09-22T10:09:27.331Z,96633.97
2022-09-22T10:12:03.375Z,96631.53
2022-09-22T10:14:33.156Z,96625.75
2022-09-22T10:17:05.191Z,96622.53
2022-09-22T10:19:34.717Z,96625.28
2022-09-22T10:22:29.000Z,96620.69
2022-09-22T10:25:00.021Z,96626.59
2022-09-22T10:27:29.890Z,96628.75
2022-09-22T10:30:24.599Z,96623.38
2022-09-22T10:33:18.534Z,96623.38
2022-09-22T10:35:48.238Z,96617.47
2022-09-22T10:38:19.664Z,96619.84
2022-09-22T10:40:51.966Z,96619.31
2022-09-22T10:43:45.624Z,96612.59
2022-09-22T10:46:23.075Z,96609.31
2022-09-22T10:49:03.880Z,96616.63
2022-09-22T10:51:41.745Z,96617.19
2022-09-22T10:54:32.520Z,96618.25
2022-09-22T10:57:09.444Z,96612.59
2022-09-22T10:59:48.703Z,96608.41
2022-09-22T11:02:35.746Z,96608.50
2022-09-22T11:05:43.567Z,96606.50
2022-09-22T11:08:31.624Z,96607.94
2022-09-22T11:11:22.881Z,96608.63
2022-09-22T11:13:57.718Z,96607.34
2022-09-22T11:16:37.602Z,96607.28
2022-09-22T11:19:27.575Z,96606.94
2022-09-22T11:22:05.794Z,96603.72
2022-09-22T11:24:44.576Z,96604.47
2022-09-22T11:27:18.476Z,96598.63
2022-09-22T11:30:11.199Z,96600.28
2022-09-22T11:33:04.927Z,96595.59
2022-09-22T11:35:54.278Z,96591.16
2022-09-22T11:38:44.117Z,96588.56
2022-09-22T11:41:19.333Z,96578.38
2022-09-22T11:43:59.495Z,96589.28
2022-09-22T11:46:32.610Z,96580.59
2022-09-22T11:49:09.809Z,96582.28
2022-09-22T11:51:48.145Z,96586.81
2022-09-22T11:54:41.800Z,96590.13
2022-09-22T11:57:11.286Z,96588.19
2022-09-22T11:59:41.792Z,96584.16
2022-09-22T12:02:15.457Z,96571.75
2022-09-22T12:04:45.855Z,96582.44
2022-09-22T12:07:17.537Z,96567.34
2022-09-22T12:09:49.422Z,96571.00
2022-09-22T12:12:19.021Z,96566.53
2022-09-22T12:14:49.472Z,96564.25
2022-09-22T12:17:21.452Z,96561.13
2022-09-22T12:19:57.529Z,96559.25
2022-09-22T12:22:29.318Z,96557.91
2022-09-22T12:25:00.315Z,96548.56
2022-09-22T12:27:34.544Z,96553.81
2022-09-22T12:30:10.052Z,96555.28
2022-09-22T12:32:44.705Z,96550.06
2022-09-22T12:35:20.157Z,96548.59
2022-09-22T12:37:51.073Z,96543.06
2022-09-22T12:40:27.274Z,96541.13
2022-09-22T12:42:56.986Z,96541.03
2022-09-22T12:45:31.486Z,96540.47
2022-09-22T12:48:00.483Z,96550.31
2022-09-22T12:50:35.316Z,96551.81
2022-09-22T12:53:11.105Z,96534.91
2022-09-22T12:55:41.170Z,96535.28
2022-09-22T12:58:40.953Z,96536.13
2022-09-22T13:01:37.639Z,96533.50
2022-09-22T13:04:20.934Z,96538.38
2022-09-22T13:06:56.975Z,96527.56
2022-09-22T13:09:28.558Z,96529.75
2022-09-22T13:12:38.255Z,96530.28
2022-09-22T13:15:24.608Z,96524.34
2022-09-22T13:17:54.109Z,96516.81
2022-09-22T13:20:27.284Z,96522.72
2022-09-22T13:22:56.981Z,96524.66
2022-09-22T13:25:28.669Z,96517.38
2022-09-22T13:28:09.511Z,96520.84
2022-09-22T13:30:38.622Z,96513.88
2022-09-22T13:33:07.014Z,96519.50
2022-09-22T13:35:38.428Z,96512.50
2022-09-22T13:38:07.354Z,96516.00
2022-09-22T13:40:38.417Z,96510.59
2022-09-22T13:43:11.049Z,96508.75
2022-09-22T13:45:39.688Z,96500.13
2022-09-22T13:48:20.911Z,96507.16
2022-09-22T13:50:50.678Z,96498.81
2022-09-22T13:53:19.488Z,96498.28
2022-09-22T13:55:50.835Z,96500.72
2022-09-22T13:58:31.033Z,96508.53
2022-09-22T14:01:15.963Z,96501.53
2022-09-22T14:03:44.292Z,96499.88
2022-09-22T14:06:14.078Z,96494.25
2022-09-22T14:08:42.507Z,96492.31
2022-09-22T14:11:14.596Z,96489.38
2022-09-22T14:13:45.457Z,96487.22
2022-09-22T14:16:18.493Z,96483.94
2022-09-22T14:18:47.270Z,96487.19
2022-09-22T14:21:15.847Z,96489.59
2022-09-22T14:23:45.361Z,96485.59
2022-09-22T14:26:21.852Z,96484.25
2022-09-22T14:28:51.504Z,96482.06
2022-09-22T14:31:24.393Z,96480.72
2022-09-22T14:33:52.899Z,96478.03
2022-09-22T14:36:23.278Z,96479.38
2022-09-22T14:39:06.522Z,96486.09
2022-09-22T14:41:39.567Z,96488.88
2022-09-22T14:44:43.030Z,96481.94
2022-09-22T14:47:27.048Z,96487.88
2022-09-22T14:50:10.679Z,96491.63
2022-09-22T14:52:40.778Z,96485.72
2022-09-22T14:55:23.300Z,96480.91
2022-09-22T14:57:51.846Z,96485.75
2022-09-22T15:00:38.885Z,96481.44
2022-09-22T15:03:21.743Z,96478.19
2022-09-22T15:09:07.876Z,96481.69
2022-09-22T15:11:49.626Z,96484.94
2022-09-22T15:14:41.419Z,96485.97
2022-09-22T15:17:57.001Z,96479.53
2022-09-22T15:20:27.042Z,96481.41
2022-09-22T15:22:55.857Z,96473.63
2022-09-22T15:25:25.708Z,96483.78
2022-09-22T15:27:54.678Z,96475.47
2022-09-22T15:30:24.160Z,96482.97
2022-09-22T15:32:55.200Z,96476.81
2022-09-22T15:35:37.680Z,96478.91
2022-09-22T15:38:07.494Z,96476.19
2022-09-22T15:40:37.800Z,96475.38
2022-09-22T15:43:14.444Z,96476.69
2022-09-22T15:45:48.870Z,96469.41
2022-09-22T15:48:37.082Z,96474.22
2022-09-22T15:51:11.420Z,96470.72
2022-09-22T15:53:45.842Z,96472.31
2022-09-22T15:56:17.264Z,96469.31
2022-09-22T15:58:48.646Z,96464.97
2022-09-22T16:01:18.593Z,96460.88
2022-09-22T16:03:51.013Z,96462.44
2022-09-22T16:06:20.087Z,96465.13
2022-09-22T16:08:51.406Z,96461.84
2022-09-22T16:11:23.337Z,96465.03
2022-09-22T16:13:52.839Z,96466.38
2022-09-22T16:16:26.544Z,96461.25
2022-09-22T16:18:58.109Z,96460.66
2022-09-22T16:21:36.740Z,96453.34
2022-09-22T16:24:09.634Z,96453.31
2022-09-22T16:26:38.933Z,96449.13
2022-09-22T16:29:07.541Z,96445.53
2022-09-22T16:31:36.366Z,96448.91
2022-09-22T16:34:12.584Z,96454.34
2022-09-22T16:36:41.856Z,96446.75
2022-09-22T16:39:10.774Z,96447.69
2022-09-22T16:41:44.600Z,96445.94
2022-09-22T16:44:13.058Z,96445.81
2022-09-22T16:46:41.517Z,96447.31
2022-09-22T16:49:17.396Z,96441.84
2022-09-22T16:51:47.567Z,96438.56
2022-09-22T16:54:16.146Z,96441.34
2022-09-22T16:56:45.529Z,96446.56
2022-09-22T16:59:25.879Z,96444.31
2022-09-22T17:05:02.622Z,96443.81
2022-09-22T17:07:31.460Z,96442.84
2022-09-22T17:10:00.411Z,96439.22
2022-09-22T17:12:29.355Z,96440.69
2022-09-22T17:14:58.132Z,96433.66
2022-09-22T17:17:29.525Z,96438.09
2022-09-22T17:19:58.190Z,96441.75
2022-09-22T17:22:39.512Z,96435.19
2022-09-22T17:25:14.053Z,96434.53
2022-09-22T17:27:42.377Z,96430.09
2022-09-22T17:30:12.989Z,96432.81
2022-09-22T17:33:24.623Z,96439.59
2022-09-22T17:36:13.010Z,96442.75
2022-09-22T17:38:42.697Z,96447.88
2022-09-22T17:41:12.352Z,96450.34
2022-09-22T17:43:42.887Z,96448.31
2022-09-22T17:46:13.536Z,96457.97
2022-09-22T17:49:00.024Z,96460.19
2022-09-22T17:51:53.312Z,96450.69
2022-09-22T17:54:41.880Z,96452.00
2022-09-22T17:57:10.775Z,96451.19
2022-09-22T17:59:40.214Z,96454.19
2022-09-22T18:02:09.104Z,96457.44
2022-09-22T18:04:37.700Z,96458.84
2022-09-22T18:07:07.006Z,96457.94
2022-09-22T18:09:38.648Z,96450.75
2022-09-22T18:12:07.926Z,96458.88
2022-09-22T18:14:40.925Z,96464.53
2022-09-22T18:17:09.619Z,96461.97
2022-09-22T18:19:37.984Z,96463.94
2022-09-22T18:22:07.410Z,96457.09
2022-09-22T18:24:38.030Z,96463.09
2022-09-22T18:27:06.757Z,96460.34
2022-09-22T18:29:35.177Z,96462.84
2022-09-22T18:32:04.599Z,96463.78
2022-09-22T18:34:33.542Z,96455.91
2022-09-22T18:37:02.429Z,96457.84
2022-09-22T18:39:31.304Z,96466.72
2022-09-22T18:42:02.008Z,96461.50
2022-09-22T18:44:36.346Z,96460.81
2022-09-22T18:47:05.683Z,96458.81
2022-09-22T18:49:37.563Z,96466.19
2022-09-22T18:52:08.078Z,96454.16
2022-09-22T18:54:39.787Z,96468.50
2022-09-22T18:57:13.332Z,96456.09
2022-09-22T18:59:42.335Z,96455.97
2022-09-22T19:02:12.190Z,96458.50
2022-09-22T19:04:41.301Z,96459.78
2022-09-22T19:07:30.242Z,96467.38
2022-09-22T19:09:59.207Z,96463.97
2022-09-22T19:12:37.475Z,96469.53
2022-09-22T19:15:13.107Z,96465.94
2022-09-22T19:17:44.302Z,96464.53
2022-09-22T19:20:14.788Z,96462.09
2022-09-22T19:22:43.395Z,96470.53
2022-09-22T19:25:11.848Z,96464.03
2022-09-22T19:27:42.655Z,96458.38
2022-09-22T19:30:12.666Z,96458.22
2022-09-22T19:32:41.148Z,96465.03
2022-09-22T19:35:14.844Z,96459.34
2022-09-22T19:37:45.255Z,96461.38
2022-09-22T19:40:18.606Z,96454.09
2022-09-22T19:42:49.965Z,96452.91
2022-09-22T19:45:19.144Z,96450.69
2022-09-22T19:47:48.633Z,96453.34
2022-09-22T19:50:17.320Z,96450.69
2022-09-22T19:52:45.986Z,96447.22
2022-09-22T19:55:16.118Z,96447.69
2022-09-22T19:57:54.298Z,96454.66
2022-09-22T20:00:31.739Z,96452.69
2022-09-22T20:03:01.499Z,96448.03
2022-09-22T20:05:32.594Z,96450.69
2022-09-22T20:08:01.830Z,96450.06
2022-09-22T20:10:31.593Z,96447.66
2022-09-22T20:13:22.152Z,96440.97
2022-09-22T20:15:50.531Z,96446.25
2022-09-22T20:18:21.630Z,96451.56
2022-09-22T20:20:51.287Z,96446.25
2022-09-22T20:23:20.216Z,96443.41
2022-09-22T20:25:48.819Z,96448.91
2022-09-22T20:28:18.911Z,96432.78
2022-09-22T20:30:48.780Z,96435.66
2022-09-22T20:33:20.282Z,96440.78
2022-09-22T20:35:50.095Z,96434.91
2022-09-22T20:38:18.617Z,96430.84
2022-09-22T20:40:46.943Z,96427.81
2022-09-22T20:43:18.860Z,96435.41
2022-09-22T20:45:47.516Z,96423.59
2022-09-22T20:48:17.255Z,96426.69
2022-09-22T20:50:46.031Z,96421.63
2022-09-22T20:53:14.527Z,96425.31
2022-09-22T20:55:43.406Z,96421.25
2022-09-22T20:58:13.458Z,96428.81
2022-09-22T21:00:43.897Z,96415.41
2022-09-22T21:03:12.473Z,96419.50
2022-09-22T21:05:46.675Z,96409.38
2022-09-22T21:08:35.523Z,96415.09
2022-09-22T21:11:04.776Z,96421.03
2022-09-22T21:13:37.960Z,96413.88
2022-09-22T21:16:08.078Z,96419.66
2022-09-22T21:18:36.620Z,96420.28
2022-09-22T21:21:08.252Z,96427.25
2022-09-22T21:23:36.620Z,96425.63
2022-09-22T21:26:07.071Z,96424.00
2022-09-22T21:28:35.678Z,96424.22
2022-09-22T21:31:05.861Z,96422.81
2022-09-22T21:33:37.545Z,96426.47
2022-09-22T21:36:08.629Z,96422.00
2022-09-22T21:38:37.939Z,96423.00
2022-09-22T21:41:07.331Z,96424.28
2022-09-22T21:43:35.798Z,96424.91
2022-09-22T21:46:05.550Z,96414.72
2022-09-22T21:48:36.322Z,96412.09
2022-09-22T21:51:06.698Z,96416.00
2022-09-22T21:53:38.976Z,96418.78
2022-09-22T21:56:10.635Z,96415.94
2022-09-22T21:58:40.164Z,96415.13
2022-09-22T22:01:08.948Z,96413.50
2022-09-22T22:03:44.422Z,96409.69
2022-09-22T22:06:13.690Z,96416.19
2022-09-22T22:08:43.374Z,96411.31
2022-09-22T22:11:16.297Z,96418.09
2022-09-22T22:13:47.786Z,96410.16
2022-09-22T22:16:16.360Z,96405.47
2022-09-22T22:18:45.998Z,96409.59
2022-09-22T22:21:15.323Z,96405.91
2022-09-22T22:23:44.906Z,96402.69
2022-09-22T22:26:14.397Z,96398.63
2022-09-22T22:28:43.589Z,96398.63
2022-09-22T22:31:12.878Z,96400.88
2022-09-22T22:33:44.139Z,96400.06
2022-09-22T22:36:16.044Z,96390.72
2022-09-22T22:38:46.017Z,96387.88
2022-09-22T22:41:15.129Z,96381.78
2022-09-22T22:43:47.613Z,96379.13
2022-09-22T22:46:19.808Z,96379.56
2022-09-22T22:48:50.059Z,96372.66
2022-09-22T22:51:21.813Z,96378.16
2022-09-22T22:53:50.988Z,96382.03
2022-09-22T22:56:22.307Z,96368.59
2022-09-22T22:58:53.963Z,96374.31
2022-09-22T23:01:23.522Z,96372.88
2022-09-22T23:03:54.424Z,96370.84
2022-09-22T23:06:27.723Z,96365.56
2022-09-22T23:08:56.118Z,96370.63
2022-09-22T23:11:30.035Z,96367.38
2022-09-22T23:14:02.128Z,96369.81
2022-09-22T23:16:31.464Z,96368.00
2022-09-22T23:19:01.400Z,96360.47
2022-09-22T23:21:31.513Z,96361.50
2022-09-22T23:23:59.926Z,96360.72
2022-09-22T23:26:30.070Z,96356.19
2022-09-22T23:29:00.208Z,96355.78
2022-09-22T23:31:29.444Z,96350.50
2022-09-22T23:34:08.221Z,96351.09
2022-09-22T23:36:41.588Z,96348.59
2022-09-22T23:39:12.517Z,96347.59
2022-09-22T23:41:42.277Z,96339.66
2022-09-22T23:44:13.041Z,96338.63
2022-09-22T23:46:43.341Z,96347.59
2022-09-22T23:49:12.491Z,96342.13
2022-09-22T23:51:43.995Z,96348.44
2022-09-22T23:54:13.976Z,96342.34
2022-09-22T23:56:42.937Z,96339.31
2022-09-22T23:59:13.820Z,96340.56
